createdAt,value
2022-09-07T00:00:51.196Z,18.53
2022-09-07T00:03:55.867Z,18.34
2022-09-07T00:06:58.895Z,18.43
2022-09-07T00:10:01.956Z,18.38
2022-09-07T00:13:04.964Z,18.32
2022-09-07T00:16:10.234Z,17.95
2022-09-07T00:19:13.774Z,18.11
2022-09-07T00:22:16.627Z,17.91
2022-09-07T00:25:19.394Z,17.78
2022-09-07T00:28:22.203Z,17.39
2022-09-07T00:31:26.401Z,17.45
2022-09-07T00:34:29.117Z,17.74
2022-09-07T00:37:31.912Z,17.78
2022-09-07T00:40:34.667Z,17.62
2022-09-07T00:43:38.676Z,17.93
2022-09-07T00:46:43.473Z,17.89
2022-09-07T00:49:46.431Z,17.97
2022-09-07T00:52:50.233Z,17.91
2022-09-07T00:55:53.598Z,18.11
2022-09-07T00:58:56.321Z,17.84
2022-09-07T01:02:00.515Z,17.96
2022-09-07T01:05:09.397Z,17.93
2022-09-07T01:08:12.844Z,18.07
2022-09-07T01:11:15.534Z,17.96
2022-09-07T01:14:18.673Z,17.80
2022-09-07T01:17:27.138Z,18.09
2022-09-07T01:20:37.914Z,18.09
2022-09-07T01:24:03.204Z,18.19
2022-09-07T01:27:53.986Z,18.22
2022-09-07T01:30:59.415Z,18.31
2022-09-07T01:34:04.207Z,18.01
2022-09-07T01:37:09.491Z,18.53
2022-09-07T01:40:14.545Z,18.39
2022-09-07T01:43:20.440Z,18.33
2022-09-07T01:46:27.673Z,17.85
2022-09-07T01:49:33.481Z,18.04
2022-09-07T01:52:39.332Z,18.19
2022-09-07T01:55:44.088Z,17.99
2022-09-07T01:58:47.349Z,18.32
2022-09-07T02:01:53.345Z,18.23
2022-09-07T02:04:57.622Z,18.37
2022-09-07T02:08:01.571Z,18.21
2022-09-07T02:11:05.654Z,18.34
2022-09-07T02:14:09.833Z,18.30
2022-09-07T02:17:17.106Z,18.26
2022-09-07T02:20:21.010Z,18.46
2022-09-07T02:23:25.192Z,18.38
2022-09-07T02:26:27.905Z,18.44
2022-09-07T02:29:31.158Z,18.44
2022-09-07T02:32:35.487Z,17.83
2022-09-07T02:35:38.259Z,17.84
2022-09-07T02:38:41.087Z,18.21
2022-09-07T02:41:44.713Z,17.86
2022-09-07T02:44:48.177Z,18.03
2022-09-07T02:48:00.452Z,18.02
2022-09-07T02:51:07.784Z,17.64
2022-09-07T02:54:18.384Z,17.54
2022-09-07T02:57:24.889Z,17.58
2022-09-07T03:00:27.562Z,17.20
2022-09-07T03:03:34.961Z,17.56
2022-09-07T03:06:39.589Z,17.41
2022-09-07T03:09:43.874Z,17.48
2022-09-07T03:12:47.527Z,17.35
2022-09-07T03:15:54.986Z,17.13
2022-09-07T03:18:59.743Z,17.09
2022-09-07T03:22:02.459Z,17.16
2022-09-07T03:25:06.278Z,17.24
2022-09-07T03:28:09.002Z,17.01
2022-09-07T03:31:11.902Z,17.11
2022-09-07T03:34:16.122Z,17.12
2022-09-07T03:37:18.857Z,17.19
2022-09-07T03:40:21.594Z,17.24
2022-09-07T03:43:25.398Z,16.94
2022-09-07T03:46:28.314Z,16.71
2022-09-07T03:49:32.497Z,16.82
2022-09-07T03:52:35.329Z,16.88
2022-09-07T03:55:38.075Z,16.92
2022-09-07T03:58:40.824Z,16.81
2022-09-07T04:01:43.599Z,16.86
2022-09-07T04:04:48.174Z,16.82
2022-09-07T04:07:52.483Z,16.95
2022-09-07T04:10:58.753Z,16.79
2022-09-07T04:14:01.630Z,16.59
2022-09-07T04:17:04.370Z,16.85
2022-09-07T04:20:09.891Z,16.76
2022-09-07T04:23:12.599Z,16.63
2022-09-07T04:26:16.651Z,16.41
2022-09-07T04:29:19.394Z,16.53
2022-09-07T04:32:22.135Z,16.49
2022-09-07T04:35:26.323Z,16.27
2022-09-07T04:38:29.321Z,16.49
2022-09-07T04:41:32.630Z,16.43
2022-09-07T04:44:35.534Z,16.53
2022-09-07T04:47:38.208Z,16.47
2022-09-07T04:50:42.221Z,16.45
2022-09-07T04:53:44.899Z,16.25
2022-09-07T04:56:47.573Z,16.52
2022-09-07T04:59:50.310Z,16.36
2022-09-07T05:02:52.976Z,16.29
2022-09-07T05:05:57.143Z,16.32
2022-09-07T05:08:59.964Z,16.13
2022-09-07T05:12:03.047Z,16.17
2022-09-07T05:15:06.745Z,16.00
2022-09-07T05:18:09.545Z,16.19
2022-09-07T05:21:14.628Z,16.03
2022-09-07T05:24:17.340Z,16.21
2022-09-07T05:27:20.092Z,16.09
2022-09-07T05:37:10.835Z,16.45
2022-09-07T05:40:15.317Z,16.65
2022-09-07T05:43:17.972Z,16.84
2022-09-07T05:46:20.746Z,16.82
2022-09-07T05:49:23.467Z,17.01
2022-09-07T05:52:27.503Z,16.89
2022-09-07T05:55:32.023Z,17.81
2022-09-07T05:58:34.953Z,18.42
2022-09-07T06:01:37.745Z,18.65
2022-09-07T06:04:40.577Z,18.40
2022-09-07T06:07:47.911Z,18.14
2022-09-07T06:10:50.617Z,18.18
2022-09-07T06:13:53.367Z,17.62
2022-09-07T06:16:56.153Z,17.66
2022-09-07T06:19:58.869Z,17.61
2022-09-07T06:23:02.986Z,17.34
2022-09-07T06:26:05.823Z,17.11
2022-09-07T06:29:10.061Z,17.71
2022-09-07T06:35:35.626Z,17.50
2022-09-07T06:38:39.878Z,17.10
2022-09-07T06:42:00.051Z,17.42
2022-09-07T06:45:02.851Z,17.43
2022-09-07T06:48:05.647Z,17.26
2022-09-07T06:51:10.336Z,17.22
2022-09-07T06:57:37.072Z,17.30
2022-09-07T07:00:39.838Z,17.44
2022-09-07T07:03:42.718Z,17.54
2022-09-07T07:06:45.394Z,17.52
2022-09-07T07:09:50.972Z,17.77
2022-09-07T07:12:57.385Z,17.96
2022-09-07T07:16:05.146Z,18.05
2022-09-07T07:19:07.852Z,17.69
2022-09-07T07:25:35.972Z,18.03
2022-09-07T07:32:01.838Z,18.15
2022-09-07T07:35:19.806Z,18.38
2022-09-07T07:41:55.444Z,18.04
2022-09-07T07:51:25.462Z,18.54
2022-09-07T07:54:28.090Z,18.80
2022-09-07T07:57:33.254Z,18.95
2022-09-07T08:00:52.965Z,18.43
2022-09-07T08:03:56.658Z,19.20
2022-09-07T08:06:59.236Z,19.28
2022-09-07T08:10:01.971Z,19.85
2022-09-07T08:13:07.101Z,19.99
2022-09-07T08:16:09.833Z,19.92
2022-09-07T08:19:12.487Z,19.95
2022-09-07T08:22:15.293Z,20.00
2022-09-07T08:25:18.935Z,20.44
2022-09-07T08:28:23.412Z,20.66
2022-09-07T08:31:26.081Z,20.48
2022-09-07T08:34:28.762Z,20.99
2022-09-07T08:37:31.404Z,21.15
2022-09-07T08:40:36.338Z,21.02
2022-09-07T08:43:48.973Z,20.99
2022-09-07T08:46:54.164Z,21.23
2022-09-07T08:50:01.180Z,21.38
2022-09-07T08:53:03.911Z,21.60
2022-09-07T08:56:09.525Z,21.23
2022-09-07T08:59:16.353Z,21.33
2022-09-07T09:02:40.303Z,21.61
2022-09-07T09:05:44.747Z,21.73
2022-09-07T09:08:55.732Z,21.93
2022-09-07T09:12:02.117Z,21.62
2022-09-07T09:15:11.211Z,21.80
2022-09-07T09:18:19.443Z,21.66
2022-09-07T09:21:22.138Z,21.95
2022-09-07T09:24:24.672Z,22.23
2022-09-07T09:27:27.252Z,22.68
2022-09-07T09:30:31.500Z,22.67
2022-09-07T09:33:34.137Z,22.81
2022-09-07T09:36:37.570Z,22.31
2022-09-07T09:39:42.601Z,21.87
2022-09-07T09:42:45.263Z,22.20
2022-09-07T09:49:15.701Z,22.15
2022-09-07T09:52:42.952Z,22.34
2022-09-07T09:55:41.731Z,22.44
2022-09-07T10:05:49.532Z,22.92
2022-09-07T10:08:56.317Z,22.63
2022-09-07T10:12:07.741Z,23.09
2022-09-07T10:15:25.911Z,23.28
2022-09-07T10:18:33.435Z,23.27
2022-09-07T10:21:35.986Z,23.10
2022-09-07T10:24:39.814Z,23.75
2022-09-07T10:27:45.868Z,23.79
2022-09-07T10:30:56.549Z,23.46
2022-09-07T10:37:31.304Z,23.58
2022-09-07T10:40:35.184Z,23.70
2022-09-07T10:43:42.243Z,23.98
2022-09-07T10:47:02.693Z,24.18
2022-09-07T10:50:24.669Z,24.01
2022-09-07T10:53:41.193Z,23.62
2022-09-07T10:56:49.388Z,23.64
2022-09-07T11:00:10.543Z,23.65
2022-09-07T11:03:28.060Z,23.68
2022-09-07T11:06:33.603Z,23.94
2022-09-07T11:09:43.511Z,24.10
2022-09-07T11:12:46.069Z,24.03
2022-09-07T11:15:50.465Z,24.35
2022-09-07T11:19:35.030Z,23.96
2022-09-07T11:22:20.470Z,24.07
2022-09-07T11:25:32.620Z,24.15
2022-09-07T11:28:42.463Z,24.47
2022-09-07T11:31:47.444Z,24.55
2022-09-07T11:34:52.215Z,24.45
2022-09-07T11:37:59.465Z,24.51
2022-09-07T11:41:19.847Z,24.23
2022-09-07T11:44:24.709Z,24.30
2022-09-07T11:47:29.017Z,24.07
2022-09-07T11:50:33.254Z,24.17
2022-09-07T11:53:37.975Z,24.35
2022-09-07T11:56:45.740Z,24.21
2022-09-07T11:59:54.544Z,24.40
2022-09-07T12:03:13.000Z,24.30
2022-09-07T12:06:28.040Z,23.69
2022-09-07T12:09:39.782Z,23.82
2022-09-07T12:12:56.830Z,23.91
2022-09-07T12:16:01.211Z,24.21
2022-09-07T12:19:19.276Z,24.63
2022-09-07T12:22:22.216Z,24.77
2022-09-07T12:25:26.766Z,24.54
2022-09-07T12:29:06.469Z,25.23
2022-09-07T12:35:39.900Z,25.01
2022-09-07T12:39:07.241Z,24.88
2022-09-07T12:42:38.934Z,24.92
2022-09-07T12:45:49.883Z,24.79
2022-09-07T12:48:55.979Z,23.79
2022-09-07T12:52:04.938Z,23.85
2022-09-07T12:55:28.280Z,23.60
2022-09-07T12:58:39.373Z,23.72
2022-09-07T13:01:45.726Z,24.05
2022-09-07T13:04:54.144Z,24.38
2022-09-07T13:08:14.531Z,24.20
2022-09-07T13:11:18.414Z,23.88
2022-09-07T13:14:25.512Z,24.22
2022-09-07T13:17:42.591Z,24.36
2022-09-07T13:20:45.280Z,24.40
2022-09-07T13:24:46.327Z,24.20
2022-09-07T13:27:52.147Z,24.37
2022-09-07T13:31:03.373Z,24.12
2022-09-07T13:34:30.621Z,24.20
2022-09-07T13:37:45.567Z,23.99
2022-09-07T13:40:48.731Z,24.30
2022-09-07T13:43:51.851Z,24.19
2022-09-07T13:47:03.922Z,24.42
2022-09-07T13:50:15.699Z,24.31
2022-09-07T13:53:25.904Z,24.08
2022-09-07T13:56:34.429Z,24.41
2022-09-07T13:59:37.186Z,24.27
2022-09-07T14:02:41.701Z,24.14
2022-09-07T14:05:44.643Z,24.28
2022-09-07T14:08:50.820Z,24.12
2022-09-07T14:11:54.333Z,24.10
2022-09-07T14:15:09.616Z,24.12
2022-09-07T14:18:14.476Z,24.23
2022-09-07T14:21:19.073Z,24.34
2022-09-07T14:24:25.936Z,24.49
2022-09-07T14:27:32.996Z,24.60
2022-09-07T14:30:36.297Z,24.44
2022-09-07T14:33:44.864Z,24.01
2022-09-07T14:36:49.386Z,24.40
2022-09-07T14:39:52.802Z,24.31
2022-09-07T14:42:58.426Z,24.74
2022-09-07T14:46:12.981Z,24.80
2022-09-07T14:49:19.805Z,24.54
2022-09-07T14:52:23.154Z,24.81
2022-09-07T14:55:29.446Z,24.47
2022-09-07T14:58:32.491Z,24.21
2022-09-07T15:01:38.925Z,24.51
2022-09-07T15:04:43.233Z,24.02
2022-09-07T15:07:47.550Z,23.92
2022-09-07T15:14:21.231Z,24.17
2022-09-07T15:20:49.063Z,24.44
2022-09-07T15:23:52.426Z,24.47
2022-09-07T15:27:02.964Z,24.33
2022-09-07T15:30:07.033Z,24.06
2022-09-07T15:33:11.438Z,23.90
2022-09-07T15:36:16.295Z,24.26
2022-09-07T15:39:19.868Z,23.78
2022-09-07T15:45:45.407Z,23.55
2022-09-07T15:48:50.408Z,23.66
2022-09-07T15:52:11.216Z,23.86
2022-09-07T15:55:17.115Z,23.69
2022-09-07T15:58:20.436Z,23.40
2022-09-07T16:04:46.082Z,23.50
2022-09-07T16:11:18.339Z,24.04
2022-09-07T16:14:21.588Z,23.86
2022-09-07T16:17:34.291Z,23.98
2022-09-07T16:20:41.041Z,23.60
2022-09-07T16:23:47.226Z,23.67
2022-09-07T16:26:50.040Z,23.88
2022-09-07T16:29:52.801Z,24.02
2022-09-07T16:32:55.917Z,23.83
2022-09-07T16:35:59.728Z,23.61
2022-09-07T16:39:04.395Z,23.71
2022-09-07T16:42:07.988Z,24.07
2022-09-07T16:48:34.781Z,23.80
2022-09-07T16:51:37.608Z,23.79
2022-09-07T16:54:41.826Z,23.28
2022-09-07T17:01:07.842Z,23.31
2022-09-07T17:04:11.506Z,23.34
2022-09-07T17:07:14.462Z,23.14
2022-09-07T17:10:18.571Z,23.44
2022-09-07T17:13:21.313Z,23.39
2022-09-07T17:16:24.888Z,23.31
2022-09-07T17:19:29.202Z,23.56
2022-09-07T17:22:32.144Z,23.20
2022-09-07T17:25:37.695Z,23.57
2022-09-07T17:28:40.956Z,23.16
2022-09-07T17:35:06.993Z,23.49
2022-09-07T17:41:36.443Z,23.22
2022-09-07T17:44:39.051Z,23.16
2022-09-07T17:47:41.678Z,22.45
2022-09-07T17:50:44.493Z,22.73
2022-09-07T17:53:47.159Z,22.87
2022-09-07T17:56:51.257Z,22.79
2022-09-07T18:00:11.439Z,22.78
2022-09-07T18:03:14.351Z,22.69
2022-09-07T18:06:17.061Z,22.56
2022-09-07T18:09:20.308Z,22.78
2022-09-07T18:12:24.348Z,22.79
2022-09-07T18:15:27.068Z,22.52
2022-09-07T18:18:29.795Z,22.17
2022-09-07T18:21:33.792Z,22.25
2022-09-07T18:24:37.145Z,22.20
2022-09-07T18:27:41.416Z,22.47
2022-09-07T18:30:44.288Z,22.45
2022-09-07T18:33:47.689Z,22.35
2022-09-07T18:36:50.408Z,22.33
2022-09-07T18:39:54.362Z,22.24
2022-09-07T18:42:58.720Z,21.88
2022-09-07T18:46:02.995Z,22.09
2022-09-07T18:49:05.639Z,21.91
2022-09-07T18:55:32.254Z,22.18
2022-09-07T18:58:36.457Z,21.99
2022-09-07T19:01:39.513Z,22.15
2022-09-07T19:08:06.986Z,22.05
2022-09-07T19:11:10.744Z,21.45
2022-09-07T19:14:15.812Z,21.44
2022-09-07T19:17:18.475Z,21.34
2022-09-07T19:20:21.123Z,21.09
2022-09-07T19:23:23.817Z,21.34
2022-09-07T19:26:27.403Z,21.00
2022-09-07T19:29:31.628Z,21.21
2022-09-07T19:32:34.231Z,21.09
2022-09-07T19:35:37.122Z,21.19
2022-09-07T19:38:40.837Z,21.01
2022-09-07T19:41:45.084Z,21.18
2022-09-07T19:44:49.274Z,20.64
2022-09-07T19:47:51.895Z,21.11
2022-09-07T19:50:54.611Z,21.07
2022-09-07T19:53:57.270Z,21.12
2022-09-07T19:57:01.248Z,21.32
2022-09-07T20:00:06.652Z,21.15
2022-09-07T20:03:10.558Z,21.26
2022-09-07T20:06:14.555Z,21.03
2022-09-07T20:09:17.412Z,20.97
2022-09-07T20:12:20.142Z,20.82
2022-09-07T20:15:24.522Z,20.79
2022-09-07T20:18:27.617Z,20.58
2022-09-07T20:21:30.295Z,20.62
2022-09-07T20:24:34.188Z,20.47
2022-09-07T20:27:36.739Z,20.59
2022-09-07T20:30:44.703Z,20.62
2022-09-07T20:33:47.687Z,20.53
2022-09-07T20:36:50.404Z,20.50
2022-09-07T20:39:53.139Z,20.21
2022-09-07T20:42:55.868Z,20.56
2022-09-07T20:46:00.088Z,20.48
2022-09-07T20:49:03.681Z,20.47
2022-09-07T20:52:06.408Z,20.43
2022-09-07T20:55:09.991Z,20.38
2022-09-07T20:58:12.632Z,19.94
2022-09-07T21:01:17.832Z,20.13
2022-09-07T21:04:20.670Z,20.20
2022-09-07T21:07:23.499Z,19.99
2022-09-07T21:10:26.950Z,20.01
2022-09-07T21:13:29.712Z,19.50
2022-09-07T21:16:34.113Z,19.46
2022-09-07T21:19:37.318Z,19.58
2022-09-07T21:22:39.998Z,19.36
2022-09-07T21:25:45.857Z,19.40
2022-09-07T21:28:48.629Z,19.22
2022-09-07T21:31:53.437Z,19.24
2022-09-07T21:34:56.621Z,19.11
2022-09-07T21:37:59.316Z,18.95
2022-09-07T21:41:06.771Z,18.68
2022-09-07T21:44:11.219Z,18.64
2022-09-07T21:47:15.763Z,18.94
2022-09-07T21:50:18.644Z,19.05
2022-09-07T21:53:21.478Z,19.09
2022-09-07T21:56:24.324Z,19.11
2022-09-07T21:59:26.977Z,19.00
2022-09-07T22:02:30.928Z,18.96
2022-09-07T22:05:36.785Z,19.02
2022-09-07T22:08:40.562Z,18.76
2022-09-07T22:11:45.993Z,18.71
2022-09-07T22:14:49.129Z,18.89
2022-09-07T22:17:55.267Z,18.42
2022-09-07T22:21:05.442Z,18.67
2022-09-07T22:24:08.295Z,18.88
2022-09-07T22:27:11.128Z,18.88
2022-09-07T22:30:14.112Z,18.83
2022-09-07T22:33:18.117Z,18.98
2022-09-07T22:36:21.824Z,18.98
2022-09-07T22:39:24.508Z,18.94
2022-09-07T22:42:27.169Z,18.51
2022-09-07T22:45:29.851Z,18.99
2022-09-07T22:48:33.923Z,18.65
2022-09-07T22:51:36.610Z,18.64
2022-09-07T22:54:39.229Z,18.79
2022-09-07T22:57:41.816Z,18.72
2022-09-07T23:00:45.067Z,18.79
2022-09-07T23:03:49.300Z,18.74
2022-09-07T23:06:52.012Z,18.66
2022-09-07T23:09:54.718Z,18.75
2022-09-07T23:12:57.427Z,18.31
2022-09-07T23:16:04.066Z,18.27
2022-09-07T23:19:08.050Z,18.39
2022-09-07T23:22:10.667Z,18.81
2022-09-07T23:25:13.265Z,18.51
2022-09-07T23:28:15.809Z,18.85
2022-09-07T23:31:18.442Z,18.75
2022-09-07T23:34:22.550Z,18.38
2022-09-07T23:37:25.232Z,18.83
2022-09-07T23:40:30.184Z,18.46
2022-09-07T23:43:33.034Z,18.38
2022-09-07T23:46:35.871Z,18.89
2022-09-07T23:49:39.986Z,18.79
2022-09-07T23:52:42.572Z,18.56
2022-09-07T23:55:45.884Z,18.75
2022-09-07T23:58:48.701Z,18.85
